Terminal Aerodrome Forecast
Issued by NWS

Home | Current Version | Previous Version | Text Only | Print | Product List | Glossary On
Versions: 1 2 3 4 5 6 7 8 9 10 11 12 13
000
FTUS44 KBMX 290520
TAFTOI
TAF
KTOI 290520Z 2906/3006 20003KT P6SM SCT060 BKN120
     FM290900 12004KT P6SM BKN015
     FM291300 13005KT P6SM VCTS BKN020 BKN040CB=

USA.gov is the U.S. government's official web portal to all federal, state and local government web resources and services.